Time;durP1;ratioP1;P1;durP2;ratioP2;P2;SDS_P1;SDS_P2;PMS_P1;PMS_P2;Temp;Humidity;BMP_temperature;BMP_pressure;BME280_temperature;BME280_humidity;BME280_pressure;Samples;Min_cycle;Max_cycle;Signal;HPM_P1;HPM_P2
2023/01/07 07:28:38;;;;;;;9.02;2.88;;;;;;;4.95;91.54;101028.34;2112204;27;20342;-67
2023/01/07 07:29:43;;;;;;;8.02;3.53;;;;;;;4.98;91.62;101023.41;2111897;28;20284;-67
2023/01/07 07:30:45;;;;;;;18.25;3.53;;;;;;;5.04;91.34;101022.47;2111259;28;20289;-68
2023/01/07 07:31:48;;;;;;;15.02;4.68;;;;;;;5.09;91.68;101021.78;2119455;28;20653;-68
2023/01/07 07:32:51;;;;;;;12.15;3.70;;;;;;;5.16;91.63;101025.13;2111554;28;20297;-68
2023/01/07 07:33:56;;;;;;;9.75;3.58;;;;;;;5.23;91.59;101027.69;2103988;28;20294;-69
2023/01/07 07:34:59;;;;;;;12.95;3.90;;;;;;;5.30;91.27;101031.88;2095819;28;20288;-68
2023/01/07 07:36:01;;;;;;;13.75;4.00;;;;;;;5.35;91.37;101028.50;2103346;28;20325;-70
2023/01/07 07:37:03;;;;;;;10.57;4.00;;;;;;;5.39;91.04;101027.00;2095276;28;20295;-69
2023/01/07 07:38:05;;;;;;;16.10;3.65;;;;;;;5.45;90.93;101033.25;2103776;28;20275;-67
2023/01/07 07:39:07;;;;;;;16.35;3.80;;;;;;;5.54;91.05;101032.66;2103597;28;20298;-68
2023/01/07 07:40:10;;;;;;;13.75;3.72;;;;;;;5.61;90.67;101032.53;2087164;28;20300;-68
2023/01/07 07:41:15;;;;;;;14.27;4.53;;;;;;;5.71;90.91;101027.44;2096500;28;20322;-67
2023/01/07 07:42:20;;;;;;;17.60;4.35;;;;;;;5.79;90.84;101029.72;2087026;28;20303;-69
2023/01/07 07:43:25;;;;;;;12.55;4.18;;;;;;;5.91;90.67;101036.91;2096535;28;20646;-69
2023/01/07 07:44:28;;;;;;;19.08;4.03;;;;;;;5.99;90.99;101034.72;2111965;28;20665;-69
2023/01/07 07:45:30;;;;;;;13.18;5.53;;;;;;;6.11;90.60;101032.00;2087209;28;20287;-69
2023/01/07 07:46:33;;;;;;;13.88;4.22;;;;;;;6.24;90.56;101036.25;2078983;28;20287;-70
2023/01/07 07:47:35;;;;;;;11.43;4.40;;;;;;;6.33;90.34;101042.03;2078667;28;20292;-69
2023/01/07 07:48:37;;;;;;;16.15;4.75;;;;;;;6.45;90.37;101037.47;2091787;28;20290;-69
2023/01/07 07:49:39;;;;;;;9.90;4.40;;;;;;;6.53;89.70;101036.28;2105071;28;20285;-69
2023/01/07 07:50:48;;;;;;;15.43;4.38;;;;;;;6.61;89.59;101035.88;2107207;28;20277;-69
2023/01/07 07:51:51;;;;;;;12.75;4.25;;;;;;;6.71;89.47;101042.22;2084258;28;20292;-69
2023/01/07 07:52:54;;;;;;;11.73;4.53;;;;;;;6.83;89.04;101036.78;2093049;28;20635;-69
2023/01/07 07:54:00;;;;;;;13.57;4.05;;;;;;;6.96;88.90;101039.16;2112509;28;20281;-69
2023/01/07 07:55:05;;;;;;;11.07;4.43;;;;;;;7.09;88.73;101039.88;2103338;28;20286;-70
2023/01/07 07:56:09;;;;;;;12.85;4.32;;;;;;;7.19;88.36;101040.06;2096146;28;20283;-69
2023/01/07 07:57:11;;;;;;;13.30;5.22;;;;;;;7.29;87.69;101036.75;2103613;28;20297;-74
2023/01/07 07:58:13;;;;;;;16.73;6.15;;;;;;;7.43;87.43;101049.50;2086970;28;20279;-69
2023/01/07 07:59:16;;;;;;;15.57;5.10;;;;;;;7.53;86.70;101043.50;2095388;28;20283;-70
2023/01/07 08:00:19;;;;;;;13.63;4.70;;;;;;;7.57;86.00;101041.97;2111179;28;20281;-73
2023/01/07 08:01:22;;;;;;;14.05;4.63;;;;;;;7.61;85.30;101040.41;2095466;28;20757;-74
2023/01/07 08:02:24;;;;;;;12.50;4.45;;;;;;;7.64;84.65;101039.09;2087197;28;20284;-76
2023/01/07 08:03:26;;;;;;;18.10;4.60;;;;;;;7.63;84.40;101037.50;2095429;28;20287;-73
2023/01/07 08:04:33;;;;;;;10.82;4.30;;;;;;;7.60;84.01;101040.66;2103606;28;20290;-76
2023/01/07 08:05:40;;;;;;;15.75;4.85;;;;;;;7.60;83.68;101038.78;2104180;28;20286;-74
2023/01/07 08:06:44;;;;;;;14.88;4.75;;;;;;;7.62;83.70;101044.69;2102925;28;20657;-80
2023/01/07 08:07:46;;;;;;;20.20;4.93;;;;;;;7.67;83.85;101049.31;2088238;28;20302;-74
2023/01/07 08:08:53;;;;;;;19.58;5.32;;;;;;;7.69;83.57;101047.19;2078687;28;20304;-76
2023/01/07 08:10:04;;;;;;;19.15;5.32;;;;;;;7.77;83.31;101048.66;2088180;28;20291;-79
2023/01/07 08:11:09;;;;;;;18.58;5.25;;;;;;;7.87;82.85;101049.56;2087741;28;20291;-73
2023/01/07 08:12:14;;;;;;;12.00;5.20;;;;;;;8.03;82.57;101047.09;2087269;28;20342;-73
2023/01/07 08:13:18;;;;;;;15.40;5.10;;;;;;;8.14;81.99;101048.84;2087084;28;20280;-76
2023/01/07 08:14:19;;;;;;;22.52;5.68;;;;;;;8.32;81.37;101050.38;2079103;28;20289;-76
2023/01/07 08:15:26;;;;;;;17.50;5.03;;;;;;;8.51;81.26;101054.38;2080378;28;20658;-74
2023/01/07 08:16:28;;;;;;;15.60;5.55;;;;;;;8.72;81.00;101046.53;2084620;28;20720;-74
2023/01/07 08:17:31;;;;;;;14.88;4.88;;;;;;;8.94;79.94;101041.09;2094835;28;20275;-74
2023/01/07 08:18:33;;;;;;;16.80;5.03;;;;;;;9.09;79.37;101054.63;2086310;28;20276;-74
2023/01/07 08:19:36;;;;;;;13.68;5.28;;;;;;;9.20;79.10;101050.94;2078668;28;20291;-74
2023/01/07 08:20:39;;;;;;;16.40;5.57;;;;;;;9.32;78.07;101048.09;2087020;28;20288;-73
2023/01/07 08:21:41;;;;;;;17.10;5.65;;;;;;;9.40;77.55;101044.94;2095100;28;20897;-74
2023/01/07 08:22:43;;;;;;;17.40;5.18;;;;;;;9.49;76.67;101048.75;2103154;28;20289;-74
2023/01/07 08:23:49;;;;;;;14.23;5.90;;;;;;;9.60;75.79;101052.31;2094587;28;20287;-73
2023/01/07 08:24:52;;;;;;;15.90;4.93;;;;;;;9.70;75.31;101051.53;2092815;28;20291;-74
2023/01/07 08:25:58;;;;;;;12.82;5.28;;;;;;;9.82;74.45;101052.16;2085003;28;20287;-74
2023/01/07 08:27:01;;;;;;;19.00;4.60;;;;;;;9.92;73.83;101046.81;2087783;28;20291;-73
2023/01/07 08:28:03;;;;;;;13.23;3.92;;;;;;;10.09;73.82;101053.91;2102925;28;20286;-74
2023/01/07 08:29:06;;;;;;;13.30;4.70;;;;;;;10.15;73.04;101045.59;2086250;28;20291;-74
2023/01/07 08:30:12;;;;;;;11.65;4.18;;;;;;;10.22;72.74;101050.72;2086647;28;20287;-74
2023/01/07 08:31:15;;;;;;;19.70;4.00;;;;;;;10.31;71.92;101051.00;2094187;28;20287;-74
2023/01/07 08:32:17;;;;;;;10.73;3.67;;;;;;;10.40;71.83;101047.56;2086180;28;20517;-73
2023/01/07 08:33:20;;;;;;;17.58;5.32;;;;;;;10.51;71.31;101039.53;2086016;28;20290;-74
2023/01/07 08:34:22;;;;;;;13.95;3.90;;;;;;;10.64;70.71;101041.69;2077534;28;20034;-74
2023/01/07 08:35:24;;;;;;;15.27;3.97;;;;;;;10.78;70.40;101045.50;2069435;28;20899;-74
2023/01/07 08:36:27;;;;;;;11.07;3.72;;;;;;;10.88;69.76;101036.63;2092576;28;20282;-74
2023/01/07 08:37:30;;;;;;;9.80;3.42;;;;;;;10.92;69.25;101039.56;2093523;28;20039;-74
2023/01/07 08:38:34;;;;;;;13.63;3.67;;;;;;;10.99;68.79;101040.91;2077990;28;20113;-74
2023/01/07 08:39:36;;;;;;;12.18;3.95;;;;;;;11.07;68.46;101040.38;2085584;28;20489;-74
2023/01/07 08:40:43;;;;;;;9.30;3.58;;;;;;;11.17;67.72;101044.16;2097948;28;20033;-74
2023/01/07 08:41:45;;;;;;;10.40;3.58;;;;;;;11.28;67.59;101046.53;2089244;28;20029;-74
2023/01/07 08:42:52;;;;;;;11.57;3.30;;;;;;;11.38;67.12;101051.13;2089746;28;20036;-74
2023/01/07 08:43:55;;;;;;;9.05;3.40;;;;;;;11.43;66.45;101053.00;2105968;28;20032;-74
2023/01/07 08:45:00;;;;;;;10.00;2.90;;;;;;;11.49;66.25;101047.31;2089160;28;20040;-73
2023/01/07 08:46:03;;;;;;;6.38;2.33;;;;;;;11.47;66.00;101054.06;2082587;28;20033;-74
2023/01/07 08:47:06;;;;;;;11.30;3.25;;;;;;;11.42;65.42;101056.78;2089727;28;20079;-74
2023/01/07 08:48:08;;;;;;;7.78;2.65;;;;;;;11.42;65.07;101056.78;2082568;28;20042;-74
2023/01/07 08:49:14;;;;;;;11.82;2.78;;;;;;;11.48;65.01;101058.38;2092015;28;20037;-74
2023/01/07 08:50:17;;;;;;;9.68;3.22;;;;;;;11.56;64.82;101053.22;2090747;28;20048;-74
2023/01/07 08:51:22;;;;;;;7.65;3.10;;;;;;;11.59;64.37;101059.97;2092027;28;20056;-76
2023/01/07 08:52:27;;;;;;;11.30;3.63;;;;;;;11.64;64.31;101057.25;2099726;28;20365;-75
2023/01/07 08:53:30;;;;;;;8.35;2.42;;;;;;;11.66;64.09;101057.78;2082744;28;20044;-75
2023/01/07 08:54:33;;;;;;;13.88;2.63;;;;;;;11.68;63.71;101060.22;2083048;28;20100;-75
2023/01/07 08:55:38;;;;;;;9.57;2.25;;;;;;;11.76;63.81;101056.97;2097139;28;20049;-75
2023/01/07 08:56:40;;;;;;;14.77;2.17;;;;;;;11.79;63.34;101068.00;2084482;28;20405;-75
2023/01/07 08:57:42;;;;;;;10.32;2.60;;;;;;;11.72;63.33;101051.31;2076180;28;20041;-75
2023/01/07 08:58:49;;;;;;;8.75;2.65;;;;;;;11.57;63.23;101054.06;2072335;28;20044;-75
2023/01/07 08:59:52;;;;;;;6.78;2.22;;;;;;;11.35;63.23;101055.16;2087458;28;20033;-75
2023/01/07 09:00:54;;;;;;;8.50;2.25;;;;;;;11.08;62.73;101043.88;2099103;28;20036;-75
2023/01/07 09:01:56;;;;;;;7.68;2.25;;;;;;;10.92;63.27;101048.44;2088834;28;20036;-75
2023/01/07 09:02:58;;;;;;;10.65;2.45;;;;;;;10.82;63.70;101048.44;2098526;28;20380;-75
2023/01/07 09:04:03;;;;;;;7.93;2.35;;;;;;;10.73;64.19;101048.16;2089469;28;20033;-75
2023/01/07 09:05:07;;;;;;;5.63;2.10;;;;;;;10.56;64.33;101050.28;2082754;28;20457;-75
2023/01/07 09:06:15;;;;;;;12.02;2.58;;;;;;;10.46;64.65;101050.25;2090026;28;20041;-75
2023/01/07 09:07:17;;;;;;;10.80;2.55;;;;;;;10.39;64.85;101051.31;2073703;28;20037;-75
2023/01/07 09:08:22;;;;;;;10.15;2.33;;;;;;;10.35;65.09;101047.56;2066406;28;20041;-75
2023/01/07 09:09:24;;;;;;;5.78;2.20;;;;;;;10.35;65.35;101046.75;2082570;28;20057;-74
2023/01/07 09:10:33;;;;;;;10.93;1.83;;;;;;;10.41;65.22;101043.81;2090414;28;20033;-74
2023/01/07 09:11:39;;;;;;;8.75;2.08;;;;;;;10.51;65.60;101055.66;2089668;28;20558;-74
2023/01/07 09:12:42;;;;;;;12.85;2.28;;;;;;;10.66;65.26;101061.06;2082647;28;20044;-74
2023/01/07 09:13:45;;;;;;;4.00;1.80;;;;;;;10.86;64.93;101058.38;2082864;28;20033;-74
2023/01/07 09:14:47;;;;;;;8.93;2.08;;;;;;;11.13;64.47;101065.41;2082182;28;20049;-74
2023/01/07 09:15:51;;;;;;;7.22;2.35;;;;;;;11.42;64.32;101067.53;2081959;28;20041;-73
2023/01/07 09:16:53;;;;;;;6.82;2.00;;;;;;;11.69;63.74;101065.31;2074463;28;20378;-74
2023/01/07 09:17:56;;;;;;;7.55;2.20;;;;;;;11.95;63.39;101068.00;2085823;28;20417;-74
2023/01/07 09:19:00;;;;;;;7.28;2.78;;;;;;;12.22;62.51;101073.78;2080850;28;20033;-74
2023/01/07 09:20:06;;;;;;;7.50;3.00;;;;;;;12.41;61.63;101075.84;2082020;28;20401;-75
2023/01/07 09:21:08;;;;;;;9.25;2.35;;;;;;;12.61;60.95;101070.38;2076010;28;20417;-75
2023/01/07 09:22:10;;;;;;;8.38;2.63;;;;;;;12.81;60.33;101080.22;2074106;28;20038;-74
2023/01/07 09:23:13;;;;;;;8.45;2.38;;;;;;;12.74;59.79;101077.81;2081686;28;20056;-74
2023/01/07 09:24:16;;;;;;;8.80;2.55;;;;;;;12.37;59.74;101069.41;2064294;28;20038;-77
2023/01/07 09:25:19;;;;;;;9.35;3.05;;;;;;;12.01;59.98;101072.25;2073521;28;20038;-76
2023/01/07 09:26:22;;;;;;;9.88;3.28;;;;;;;11.72;60.06;101072.84;2082127;28;20040;-75
2023/01/07 09:27:25;;;;;;;8.65;2.58;;;;;;;11.48;60.57;101077.22;2081446;28;20025;-75
2023/01/07 09:28:32;;;;;;;9.73;2.70;;;;;;;11.28;61.02;101073.47;2074272;28;20034;-75
2023/01/07 09:29:34;;;;;;;8.63;2.25;;;;;;;11.13;61.25;101074.28;2073080;28;20033;-75
2023/01/07 09:30:37;;;;;;;8.15;2.50;;;;;;;11.07;61.38;101077.25;2071496;28;20049;-74
2023/01/07 09:31:40;;;;;;;8.35;3.08;;;;;;;11.00;61.93;101080.22;2082292;28;20036;-74
2023/01/07 09:32:42;;;;;;;11.68;2.63;;;;;;;10.86;62.19;101087.97;2066022;28;20034;-75
2023/01/07 09:33:48;;;;;;;9.77;2.95;;;;;;;10.70;62.79;101083.66;2074928;28;20378;-75
2023/01/07 09:34:54;;;;;;;12.05;3.38;;;;;;;10.49;62.62;101082.78;2097677;28;20049;-74
2023/01/07 09:35:59;;;;;;;8.02;2.92;;;;;;;10.36;63.22;101078.72;2090332;28;20039;-72
2023/01/07 09:37:07;;;;;;;15.00;3.40;;;;;;;10.24;63.94;101080.78;2090503;28;20035;-69
2023/01/07 09:38:09;;;;;;;8.38;2.80;;;;;;;10.14;64.52;101086.94;2083006;28;20037;-70
2023/01/07 09:39:12;;;;;;;9.55;2.70;;;;;;;10.03;64.32;101081.81;2089780;28;20027;-70
2023/01/07 09:40:26;;;;;;;7.43;2.85;;;;;;;9.89;64.76;101079.56;2090188;28;20539;-70
2023/01/07 09:41:55;;;;;;;13.00;3.17;;;;;;;9.84;65.01;101084.94;2090315;28;20028;-70
2023/01/07 09:43:17;;;;;;;10.85;3.33;;;;;;;9.80;65.93;101078.44;2085907;28;20295;-70
2023/01/07 09:44:24;;;;;;;10.57;3.20;;;;;;;9.78;66.72;101085.16;2090318;28;20037;-70
2023/01/07 09:45:53;;;;;;;12.13;3.00;;;;;;;9.71;66.63;101080.03;2089617;28;20275;-70
2023/01/07 09:47:01;;;;;;;9.20;3.15;;;;;;;9.66;66.96;101086.16;2079914;28;20405;-70
2023/01/07 09:48:28;;;;;;;11.65;2.80;;;;;;;9.61;66.69;101083.44;2084020;28;20041;-70
2023/01/07 09:49:33;;;;;;;11.85;3.10;;;;;;;9.64;66.75;101082.13;2081470;28;20660;-70
2023/01/07 09:50:48;;;;;;;10.93;2.50;;;;;;;9.70;67.40;101075.72;2082943;28;20051;-70
2023/01/07 09:52:18;;;;;;;8.45;2.38;;;;;;;9.74;66.90;101076.78;2091169;28;20041;-70
2023/01/07 09:53:31;;;;;;;10.13;2.35;;;;;;;9.86;67.24;101074.72;2083821;28;20049;-70
2023/01/07 09:54:36;;;;;;;12.27;3.15;;;;;;;9.85;66.29;101078.50;2085373;28;20033;-71
2023/01/07 09:55:40;;;;;;;11.27;2.80;;;;;;;9.81;66.04;101080.09;2090747;28;20564;-68
2023/01/07 09:56:46;;;;;;;6.30;2.00;;;;;;;9.72;65.54;101092.38;2098343;28;20103;-68
2023/01/07 09:57:49;;;;;;;7.03;2.40;;;;;;;9.58;65.34;101083.16;2099178;28;20047;-68
2023/01/07 09:58:51;;;;;;;10.63;2.88;;;;;;;9.50;65.81;101087.94;2098917;28;20029;-68
2023/01/07 09:59:54;;;;;;;8.77;2.75;;;;;;;9.39;65.99;101091.59;2090139;28;20798;-67
2023/01/07 10:01:02;;;;;;;12.85;3.03;;;;;;;9.33;66.10;101087.28;2090442;28;20064;-69
2023/01/07 10:02:30;;;;;;;11.60;3.00;;;;;;;9.25;66.41;101096.63;2091234;28;20048;-69
2023/01/07 10:03:44;;;;;;;44.92;6.78;;;;;;;9.17;66.48;101089.03;2085224;28;20033;-69
2023/01/07 10:04:54;;;;;;;12.15;3.38;;;;;;;9.10;66.73;101085.75;2091335;28;20075;-69
2023/01/07 10:06:24;;;;;;;11.65;3.65;;;;;;;9.09;67.28;101080.66;2083119;28;20295;-69
2023/01/07 10:07:41;;;;;;;11.30;3.20;;;;;;;9.08;67.67;101084.38;2075407;28;20113;-69
2023/01/07 10:08:54;;;;;;;8.77;3.17;;;;;;;9.08;67.79;101084.38;2092482;28;20778;-69
2023/01/07 10:10:08;;;;;;;12.05;3.83;;;;;;;9.01;67.45;101085.41;2083552;28;20295;-69
2023/01/07 10:11:35;;;;;;;14.20;4.38;;;;;;;9.01;68.02;101081.91;2083654;28;20301;-69
2023/01/07 10:12:55;;;;;;;13.52;4.13;;;;;;;8.96;67.88;101082.69;2072897;28;20096;-69
2023/01/07 10:14:07;;;;;;;13.40;3.67;;;;;;;8.94;67.85;101078.63;2086995;28;20311;-69
2023/01/07 10:15:12;;;;;;;9.68;3.75;;;;;;;8.88;67.76;101072.41;2091694;28;20052;-69
2023/01/07 10:16:31;;;;;;;12.93;3.72;;;;;;;8.82;67.90;101076.13;2090450;28;20805;-69
2023/01/07 10:17:47;;;;;;;12.90;4.43;;;;;;;8.77;68.17;101073.41;2098404;28;20271;-69
2023/01/07 10:19:02;;;;;;;10.02;4.18;;;;;;;8.74;68.73;101068.53;2098454;28;20044;-69
2023/01/07 10:20:18;;;;;;;14.50;3.67;;;;;;;8.72;68.79;101070.66;2091724;28;20295;-69
2023/01/07 10:21:40;;;;;;;13.85;3.90;;;;;;;8.66;69.01;101061.75;2083908;28;20331;-69
2023/01/07 10:22:55;;;;;;;12.32;4.22;;;;;;;8.67;68.98;101062.56;2079165;28;20361;-69
2023/01/07 10:24:18;;;;;;;11.30;3.78;;;;;;;8.68;69.54;101056.16;2085767;28;20636;-69
2023/01/07 10:25:26;;;;;;;11.70;3.40;;;;;;;8.64;69.23;101057.69;2084861;28;20652;-69
2023/01/07 10:26:45;;;;;;;16.27;4.40;;;;;;;8.68;69.19;101056.16;2074822;28;20289;-69
2023/01/07 10:27:51;;;;;;;13.07;4.25;;;;;;;8.71;69.29;101059.13;2088218;28;20282;-69
2023/01/07 10:29:03;;;;;;;14.80;4.20;;;;;;;8.74;69.62;101052.47;2080932;28;20049;-70
2023/01/07 10:30:15;;;;;;;10.30;4.43;;;;;;;8.73;69.01;101048.97;2075959;28;20649;-69
2023/01/07 10:31:20;;;;;;;14.10;4.25;;;;;;;8.73;68.82;101050.81;2082780;28;20291;-69
2023/01/07 10:32:30;;;;;;;14.02;4.57;;;;;;;8.68;68.84;101051.59;2090066;28;20283;-67
2023/01/07 10:33:36;;;;;;;10.30;4.32;;;;;;;8.64;68.72;101046.97;2089012;28;20821;-68
2023/01/07 10:34:44;;;;;;;13.15;4.45;;;;;;;8.64;68.93;101049.66;2089260;28;20279;-68
2023/01/07 10:36:00;;;;;;;13.98;5.57;;;;;;;8.64;69.45;101055.84;2080805;28;20894;-67
2023/01/07 10:37:07;;;;;;;16.05;4.65;;;;;;;8.63;69.07;101050.72;2068206;28;20049;-67
2023/01/07 10:38:17;;;;;;;13.32;4.15;;;;;;;8.62;69.29;101043.75;2065800;28;20434;-68
2023/01/07 10:39:51;;;;;;;15.63;4.47;;;;;;;8.69;69.79;101049.72;2067080;28;20297;-68
2023/01/07 10:40:58;;;;;;;12.80;4.30;;;;;;;8.81;70.29;101043.13;2080476;28;20287;-67
2023/01/07 10:42:21;;;;;;;13.25;4.70;;;;;;;8.96;70.70;101045.16;2081530;28;20288;-71
2023/01/07 10:43:35;;;;;;;16.63;4.55;;;;;;;9.04;70.84;101041.97;2083515;28;20295;-68
2023/01/07 10:44:57;;;;;;;13.40;4.50;;;;;;;9.07;70.06;101035.28;2087993;28;20791;-67
2023/01/07 10:46:23;;;;;;;11.77;4.15;;;;;;;9.08;70.14;101033.41;2084830;28;20284;-67
2023/01/07 10:47:55;;;;;;;13.32;4.97;;;;;;;8.99;69.35;101044.63;2098488;28;20279;-69
2023/01/07 10:49:14;;;;;;;17.80;5.43;;;;;;;8.92;68.76;101036.00;2099739;28;20032;-69
2023/01/07 10:50:55;;;;;;;12.70;5.00;;;;;;;8.85;68.83;101042.63;2088418;28;20271;-68
2023/01/07 10:52:05;;;;;;;14.70;4.60;;;;;;;8.78;69.39;101040.16;2092768;28;20639;-68
2023/01/07 10:53:51;;;;;;;18.33;5.30;;;;;;;8.71;68.96;101034.19;2089065;28;20291;-67
2023/01/07 10:55:19;;;;;;;13.10;5.18;;;;;;;8.71;69.80;101042.25;2084101;28;20810;-67
2023/01/07 10:57:05;;;;;;;16.58;5.05;;;;;;;8.75;69.62;101036.09;2084223;28;20279;-69
2023/01/07 10:58:11;;;;;;;12.20;4.88;;;;;;;8.74;69.30;101036.38;2084122;28;20040;-68
2023/01/07 10:59:19;;;;;;;15.38;5.22;;;;;;;8.73;69.33;101026.69;2069179;28;20052;-68
2023/01/07 11:00:23;;;;;;;13.98;4.70;;;;;;;8.75;69.31;101032.63;2062845;28;20034;-68
2023/01/07 11:01:35;;;;;;;16.83;5.40;;;;;;;8.77;69.26;101033.19;2070340;28;20049;-68
2023/01/07 11:02:38;;;;;;;13.77;4.57;;;;;;;8.81;69.01;101028.91;2069446;28;20042;-73
2023/01/07 11:03:42;;;;;;;13.85;5.03;;;;;;;8.82;69.38;101033.22;2085432;28;20361;-70
2023/01/07 11:04:47;;;;;;;15.68;5.15;;;;;;;8.84;69.30;101024.94;2094637;28;20055;-67
2023/01/07 11:06:05;;;;;;;13.48;5.53;;;;;;;8.85;68.90;101027.34;2086518;28;20667;-68
2023/01/07 11:07:23;;;;;;;14.65;4.95;;;;;;;8.87;69.31;101024.41;2077402;28;20441;-69
2023/01/07 11:08:38;;;;;;;11.95;5.32;;;;;;;8.93;70.09;101020.72;2088024;28;20303;-70
2023/01/07 11:09:52;;;;;;;16.15;5.50;;;;;;;8.95;69.77;101016.72;2095504;28;20055;-70
2023/01/07 11:10:56;;;;;;;14.93;5.18;;;;;;;8.97;69.51;101022.63;2094505;28;20064;-70
2023/01/07 11:12:26;;;;;;;15.65;5.13;;;;;;;8.96;69.00;101015.66;2095077;28;20690;-71
2023/01/07 11:13:38;;;;;;;16.58;5.82;;;;;;;8.92;68.94;101011.88;2084253;28;20342;-72
2023/01/07 11:14:44;;;;;;;20.25;6.03;;;;;;;8.86;69.34;101015.56;2083437;28;20553;-69
2023/01/07 11:16:06;;;;;;;16.75;5.47;;;;;;;8.84;69.02;101009.63;2088155;28;20678;-70
2023/01/07 11:17:35;;;;;;;15.93;5.82;;;;;;;8.82;68.70;101019.81;2081936;28;20047;-69
2023/01/07 11:18:59;;;;;;;16.50;5.68;;;;;;;8.78;69.01;101018.69;2092952;28;20047;-71
2023/01/07 11:20:04;;;;;;;15.95;5.80;;;;;;;8.72;68.91;101020.53;2097099;28;20743;-71
2023/01/07 11:21:07;;;;;;;13.15;6.18;;;;;;;8.72;69.31;101012.47;2083429;28;20295;-71
2023/01/07 11:22:27;;;;;;;17.08;6.20;;;;;;;8.72;69.34;101009.00;2078552;28;20042;-70
2023/01/07 11:23:37;;;;;;;18.40;6.30;;;;;;;8.69;69.61;101006.81;2084121;28;20040;-70
2023/01/07 11:24:44;;;;;;;20.15;5.78;;;;;;;8.64;69.22;101009.44;2073773;28;20038;-70
2023/01/07 11:25:57;;;;;;;16.98;5.80;;;;;;;8.57;69.48;101010.50;2083561;28;20053;-72
2023/01/07 11:27:16;;;;;;;13.30;5.70;;;;;;;8.53;69.39;101009.38;2085474;28;20287;-69
2023/01/07 11:28:25;;;;;;;20.40;6.55;;;;;;;8.46;69.17;101006.09;2091271;28;20048;-72
2023/01/07 11:29:56;;;;;;;17.95;6.50;;;;;;;8.46;69.98;101006.09;2097954;28;20889;-71
2023/01/07 11:31:02;;;;;;;16.38;5.72;;;;;;;8.44;69.56;101008.19;2099425;28;20279;-72
2023/01/07 11:32:04;;;;;;;18.33;6.18;;;;;;;8.44;69.87;100999.34;2100158;28;20635;-71
2023/01/07 11:33:28;;;;;;;18.73;6.85;;;;;;;8.36;69.62;100997.91;2099113;28;20055;-71
2023/01/07 11:34:52;;;;;;;16.40;6.05;;;;;;;8.29;70.18;101005.31;2100196;28;20303;-71
2023/01/07 11:35:56;;;;;;;18.15;6.30;;;;;;;8.25;70.46;100998.88;2086511;28;20123;-70
2023/01/07 11:37:03;;;;;;;18.17;6.43;;;;;;;8.25;69.89;101001.53;2086767;28;20432;-69
2023/01/07 11:38:29;;;;;;;17.60;6.72;;;;;;;8.23;69.98;100995.63;2091971;28;20495;-71
2023/01/07 11:39:34;;;;;;;18.98;6.53;;;;;;;8.25;69.84;100998.88;2086450;28;20284;-70
2023/01/07 11:40:57;;;;;;;17.70;7.03;;;;;;;8.29;70.62;100989.25;2077077;28;20300;-69
2023/01/07 11:43:46;;;;;;;23.23;7.30;;;;;;;8.44;70.29;100994.81;2084142;28;20963;-69
2023/01/07 11:44:48;;;;;;;20.17;7.05;;;;;;;8.49;70.49;100996.75;2078916;28;20299;-71
2023/01/07 11:45:58;;;;;;;16.10;6.47;;;;;;;8.51;70.10;100992.75;2070865;28;20288;-71
2023/01/07 11:47:04;;;;;;;19.83;7.45;;;;;;;8.54;69.95;100994.09;2083395;28;20292;-69
2023/01/07 11:48:22;;;;;;;21.98;6.68;;;;;;;8.55;69.60;100990.38;2084032;28;20041;-68
2023/01/07 11:49:29;;;;;;;19.55;6.68;;;;;;;8.53;69.94;100987.91;2091511;28;20079;-69
2023/01/07 11:50:38;;;;;;;20.58;7.13;;;;;;;8.53;70.15;100993.28;2079598;28;20291;-69
2023/01/07 11:51:44;;;;;;;21.05;6.75;;;;;;;8.52;69.59;100994.34;2078480;28;20045;-67
2023/01/07 11:53:01;;;;;;;18.95;7.00;;;;;;;8.51;69.53;100995.44;2077305;28;20038;-68
2023/01/07 11:54:03;;;;;;;14.88;6.82;;;;;;;8.50;69.69;100999.16;2088394;28;20057;-69
2023/01/07 11:55:15;;;;;;;19.13;7.03;;;;;;;8.48;70.16;100989.75;2082419;28;20020;-69
2023/01/07 11:56:19;;;;;;;18.83;6.80;;;;;;;8.44;69.56;100994.81;2084135;28;20044;-67
2023/01/07 11:57:31;;;;;;;20.92;7.25;;;;;;;8.41;69.65;100992.63;2086239;28;20056;-68
2023/01/07 11:58:45;;;;;;;19.15;7.28;;;;;;;8.36;69.95;100992.56;2088800;28;20025;-68
2023/01/07 12:00:03;;;;;;;21.58;6.93;;;;;;;8.32;69.31;100986.06;2093310;28;20291;-69
2023/01/07 12:01:13;;;;;;;17.80;6.68;;;;;;;8.31;69.78;100998.66;2095006;28;20479;-68
2023/01/07 12:02:30;;;;;;;18.92;6.07;;;;;;;8.29;69.69;100992.78;2083711;28;20690;-69
2023/01/07 12:03:36;;;;;;;20.45;7.15;;;;;;;8.27;69.66;100994.06;2088562;28;20039;-68
2023/01/07 12:04:40;;;;;;;16.80;7.10;;;;;;;8.28;70.25;100991.13;2095771;28;20767;-68
2023/01/07 12:05:45;;;;;;;21.75;7.60;;;;;;;8.29;70.53;100991.94;2094494;28;20295;-68
2023/01/07 12:06:50;;;;;;;21.52;6.90;;;;;;;8.28;70.26;100998.34;2083667;28;20427;-69
2023/01/07 12:07:54;;;;;;;18.17;7.22;;;;;;;8.27;70.38;100994.06;2088367;28;20452;-69
2023/01/07 12:09:03;;;;;;;17.42;7.03;;;;;;;8.29;70.25;100997.28;2071766;28;20054;-68
2023/01/07 12:10:23;;;;;;;23.25;7.40;;;;;;;8.29;70.17;100991.94;2078385;28;20119;-67
2023/01/07 12:11:31;;;;;;;17.48;6.35;;;;;;;8.31;70.08;100997.84;2080013;28;20280;-68
2023/01/07 12:12:38;;;;;;;23.90;7.30;;;;;;;8.29;70.26;100999.97;2080995;28;20063;-68
2023/01/07 12:13:47;;;;;;;17.73;7.00;;;;;;;8.29;70.51;100994.63;2074261;28;20041;-69
2023/01/07 12:14:52;;;;;;;22.90;7.47;;;;;;;8.28;70.40;100998.34;2072526;28;20053;-69
2023/01/07 12:16:06;;;;;;;16.23;7.30;;;;;;;8.28;70.73;100995.69;2081342;28;20025;-69
2023/01/07 12:17:32;;;;;;;19.00;7.82;;;;;;;8.32;71.01;100994.09;2086166;28;20056;-70
2023/01/07 12:19:00;;;;;;;23.17;7.55;;;;;;;8.34;70.31;101000.84;2082072;28;21111;-70
2023/01/07 12:20:24;;;;;;;17.02;7.32;;;;;;;8.39;70.31;100994.78;2091239;28;20635;-70
2023/01/07 12:21:32;;;;;;;22.92;7.63;;;;;;;8.42;70.87;101001.47;2089801;28;20032;-71
2023/01/07 12:22:42;;;;;;;18.63;7.40;;;;;;;8.36;70.57;100997.91;2077424;28;20594;-69
2023/01/07 12:23:56;;;;;;;21.15;7.97;;;;;;;8.34;70.72;100995.47;2072830;28;20029;-68
2023/01/07 12:25:05;;;;;;;23.10;7.15;;;;;;;8.32;70.35;100997.63;2079381;28;20272;-68
2023/01/07 12:26:17;;;;;;;22.70;7.43;;;;;;;8.31;70.01;100992.50;2080773;28;20041;-69
2023/01/07 12:27:57;;;;;;;21.33;7.50;;;;;;;8.24;70.24;100997.25;2089389;28;20029;-69
2023/01/07 12:29:25;;;;;;;20.00;7.20;;;;;;;8.16;70.03;101001.19;2089151;28;20068;-69
2023/01/07 12:30:32;;;;;;;18.88;7.45;;;;;;;8.12;70.11;100998.19;2088289;28;20270;-69
2023/01/07 12:32:20;;;;;;;25.30;7.50;;;;;;;8.09;70.56;100993.34;2084521;28;20287;-70
2023/01/07 12:33:23;;;;;;;24.50;8.23;;;;;;;8.06;70.30;100991.16;2073595;28;20332;-70
2023/01/07 12:34:57;;;;;;;20.77;7.78;;;;;;;8.04;70.37;100995.97;2073083;28;20783;-71
2023/01/07 12:36:16;;;;;;;20.27;7.57;;;;;;;8.04;70.71;101000.50;2083599;28;20306;-71
2023/01/07 12:37:33;;;;;;;18.83;7.35;;;;;;;8.02;70.57;100998.09;2079017;28;20280;-69
2023/01/07 12:38:48;;;;;;;19.58;7.35;;;;;;;8.03;70.87;100999.69;2073008;28;20276;-69
2023/01/07 12:40:00;;;;;;;16.98;6.90;;;;;;;8.06;70.71;101003.75;2082191;28;20040;-70
2023/01/07 12:41:30;;;;;;;19.05;7.13;;;;;;;8.06;70.34;100998.38;2089546;28;20054;-70
2023/01/07 12:42:39;;;;;;;16.42;6.70;;;;;;;8.03;70.51;100999.69;2087469;28;20048;-72
2023/01/07 12:44:14;;;;;;;22.73;7.38;;;;;;;8.04;70.49;100995.16;2080959;28;20029;-71
2023/01/07 12:45:24;;;;;;;18.17;7.32;;;;;;;8.03;70.44;100988.97;2084858;28;20288;-74
2023/01/07 12:46:31;;;;;;;21.15;7.07;;;;;;;7.98;69.93;100996.19;2078995;28;20281;-73
2023/01/07 12:47:49;;;;;;;14.70;6.80;;;;;;;7.93;69.88;100988.88;2071951;28;20037;-72
2023/01/07 12:49:15;;;;;;;20.67;6.82;;;;;;;7.91;69.98;100993.66;2084528;28;20272;-69
2023/01/07 12:50:32;;;;;;;18.17;7.18;;;;;;;7.90;70.40;100992.06;2084592;28;20954;-68
2023/01/07 12:51:49;;;;;;;17.63;6.50;;;;;;;7.87;70.15;100997.91;2074882;28;20272;-71
2023/01/07 12:53:04;;;;;;;23.83;8.02;;;;;;;7.82;70.10;100990.63;2085186;28;20091;-69
2023/01/07 12:55:02;;;;;;;19.80;7.25;;;;;;;7.77;70.88;100992.44;2081521;28;20292;-68